Estación de Nogales
Ultimos registro cada 15 minutos 62
| N° | Estación | Fecha / Hora | Temperatura | Humedad | Lluvia | Velocidad | Dirección | Radiación | Presion |
| 62 | Nogales | 06-05-2026 15:15 | 15,7 | 93,6 | 0 | 0 | 11 | 78,1 | 988,7 |
| 61 | Nogales | 06-05-2026 15:00 | 15,8 | 93,2 | 0 | 0 | 11 | 60,6 | 988,8 |
| 60 | Nogales | 06-05-2026 14:45 | 15,9 | 93 | 0 | 0,3 | 347 | 88,1 | 988,6 |
| 59 | Nogales | 06-05-2026 14:30 | 15,6 | 92,6 | 0 | 0 | 341 | 56,9 | 988,6 |
| 58 | Nogales | 06-05-2026 14:15 | 15,6 | 91,9 | 0,2 | 0 | 341 | 58,1 | 988,6 |
| 57 | Nogales | 06-05-2026 14:00 | 16 | 91,3 | 0 | 0 | 337 | 79,4 | 988,7 |
| 56 | Nogales | 06-05-2026 13:45 | 15,9 | 90,6 | 0 | 0 | 337 | 74,4 | 989,1 |
| 55 | Nogales | 06-05-2026 13:30 | 15,8 | 90,2 | 0,4 | 0 | 337 | 103,1 | 989,1 |
| 54 | Nogales | 06-05-2026 13:15 | 15,6 | 89,5 | 0,6 | 0 | 345 | 121,9 | 989,1 |
| 53 | Nogales | 06-05-2026 13:00 | 15,6 | 86,7 | 0,6 | 1,3 | 357 | 121,9 | 989,2 |
| 52 | Nogales | 06-05-2026 12:45 | 16,2 | 80,1 | 0 | 1,7 | 351 | 163,1 | 989,1 |
| 51 | Nogales | 06-05-2026 12:30 | 17 | 75,7 | 0 | 1,3 | 320 | 223,1 | 988,8 |
| 50 | Nogales | 06-05-2026 12:15 | 17,3 | 72,3 | 0 | 1,7 | 331 | 273,1 | 988,7 |
| 49 | Nogales | 06-05-2026 12:00 | 17,4 | 70,9 | 0 | 1,7 | 321 | 308,1 | 988,5 |
| 48 | Nogales | 06-05-2026 11:45 | 16,6 | 74,5 | 0 | 2 | 302 | 341,9 | 988,6 |
| 47 | Nogales | 06-05-2026 11:30 | 15,3 | 79,6 | 0 | 2,7 | 305 | 236,9 | 988,5 |
| 46 | Nogales | 06-05-2026 11:15 | 17,6 | 64 | 0 | 2,7 | 300 | 380,6 | 988,4 |
| 45 | Nogales | 06-05-2026 11:00 | 18,2 | 62,2 | 0 | 2,3 | 292 | 441,9 | 987,5 |
| 44 | Nogales | 06-05-2026 10:45 | 19 | 61,5 | 0 | 2,3 | 298 | 424,4 | 987,4 |
| 43 | Nogales | 06-05-2026 10:30 | 18,3 | 63,2 | 0 | 2 | 296 | 376,9 | 987,5 |
| 42 | Nogales | 06-05-2026 10:15 | 19,7 | 60,3 | 0 | 2,3 | 306 | 409,4 | 987,1 |
| 41 | Nogales | 06-05-2026 10:00 | 19,3 | 62,9 | 0 | 1 | 289 | 443,1 | 987,2 |
| 40 | Nogales | 06-05-2026 09:45 | 16,6 | 77,1 | 0 | 0 | 167 | 558,1 | 987 |
| 39 | Nogales | 06-05-2026 09:30 | 15,1 | 81,2 | 0 | 0,3 | 156 | 143,1 | 987,2 |
| 38 | Nogales | 06-05-2026 09:15 | 15,6 | 85,2 | 0 | 0,7 | 32 | 225,6 | 987,3 |
| 37 | Nogales | 06-05-2026 09:00 | 12,2 | 93,8 | 0 | 0,3 | 4 | 309,4 | 986,9 |
| 36 | Nogales | 06-05-2026 08:45 | 10 | 95,7 | 0 | 0 | 340 | 255,6 | 986,9 |
| 35 | Nogales | 06-05-2026 08:30 | 7,3 | 96,1 | 0 | 0 | 337 | 19,4 | 986,8 |
| 34 | Nogales | 06-05-2026 08:15 | 7,2 | 96,2 | 0 | 0 | 314 | 15,6 | 986,7 |
| 33 | Nogales | 06-05-2026 08:00 | 6,6 | 95,8 | 0 | 0 | 263 | 13,1 | 986,7 |
| 32 | Nogales | 06-05-2026 07:45 | 6,7 | 95,8 | 0 | 0 | 145 | 8,1 | 986,8 |
| 31 | Nogales | 06-05-2026 07:30 | 6,7 | 95,6 | 0 | 0 | 147 | 3,1 | 986,8 |
| 30 | Nogales | 06-05-2026 07:15 | 7,1 | 95,8 | 0 | 0,3 | 60 | 0,6 | 986,8 |
| 29 | Nogales | 06-05-2026 07:00 | 6,9 | 95,9 | 0 | 0,3 | 11 | 0,6 | 986,6 |
| 28 | Nogales | 06-05-2026 06:45 | 6,4 | 95,4 | 0 | 0,3 | 0 | 0,6 | 986,4 |
| 27 | Nogales | 06-05-2026 06:30 | 5,7 | 95,4 | 0 | 0 | 345 | 0,6 | 986,1 |
| 26 | Nogales | 06-05-2026 06:15 | 6,2 | 95,3 | 0 | 0 | 345 | 0,6 | 985,8 |
| 25 | Nogales | 06-05-2026 06:00 | 6,4 | 95,3 | 0 | 0 | 344 | 0,6 | 985,8 |
| 24 | Nogales | 06-05-2026 05:45 | 6,7 | 95,1 | 0 | 0,3 | 348 | 0,6 | 985,7 |
| 23 | Nogales | 06-05-2026 05:30 | 6,8 | 95 | 0 | 0,3 | 355 | 0,6 | 985,7 |
| 22 | Nogales | 06-05-2026 05:15 | 6,5 | 94,5 | 0 | 0,3 | 74 | 0,6 | 985,5 |
| 21 | Nogales | 06-05-2026 05:00 | 6,3 | 94,6 | 0 | 0 | 358 | 0,6 | 985,4 |
| 20 | Nogales | 06-05-2026 04:45 | 5,9 | 93,7 | 0 | 0 | 357 | 0,6 | 985,3 |
| 19 | Nogales | 06-05-2026 04:30 | 5,9 | 93,9 | 0 | 0 | 357 | 0,6 | 985,3 |
| 18 | Nogales | 06-05-2026 04:15 | 6,3 | 93,8 | 0 | 0 | 357 | 0,6 | 985,3 |
| 17 | Nogales | 06-05-2026 04:00 | 6,5 | 93,8 | 0 | 0 | 355 | 0,6 | 985,3 |
| 16 | Nogales | 06-05-2026 03:45 | 6,3 | 93,8 | 0 | 0 | 355 | 0,6 | 985,3 |
| 15 | Nogales | 06-05-2026 03:30 | 6,4 | 93,6 | 0 | 0 | 355 | 0,6 | 985 |
| 14 | Nogales | 06-05-2026 03:15 | 6,2 | 93,2 | 0 | 0 | 355 | 0,6 | 984,7 |
| 13 | Nogales | 06-05-2026 03:00 | 6,5 | 92,9 | 0 | 0 | 354 | 0,6 | 984,6 |
| 12 | Nogales | 06-05-2026 02:45 | 6,6 | 92,7 | 0 | 0 | 327 | 0,6 | 984,6 |
| 11 | Nogales | 06-05-2026 02:30 | 7,1 | 92,6 | 0 | 0 | 326 | 0,6 | 984,7 |
| 10 | Nogales | 06-05-2026 02:15 | 7 | 92,2 | 0 | 0 | 326 | 0,6 | 984,9 |
| 9 | Nogales | 06-05-2026 02:00 | 7,5 | 92,3 | 0 | 0 | 326 | 0,6 | 985,2 |
| 8 | Nogales | 06-05-2026 01:45 | 7,6 | 91,7 | 0 | 0 | 326 | 0,6 | 985,2 |
| 7 | Nogales | 06-05-2026 01:30 | 8 | 91,7 | 0 | 0 | 326 | 0,6 | 985,2 |
| 6 | Nogales | 06-05-2026 01:15 | 8,1 | 91,2 | 0 | 0 | 326 | 0,6 | 985,2 |
| 5 | Nogales | 06-05-2026 01:00 | 8,8 | 91,1 | 0 | 0 | 326 | 0,6 | 985,3 |
| 4 | Nogales | 06-05-2026 00:45 | 9 | 90,5 | 0 | 0 | 326 | 0,6 | 985,4 |
| 3 | Nogales | 06-05-2026 00:30 | 9,7 | 90,3 | 0 | 0 | 326 | 0,6 | 985,7 |
| 2 | Nogales | 06-05-2026 00:15 | 10,4 | 90,1 | 0 | 0 | 326 | 0,6 | 985,8 |
| 1 | Nogales | 06-05-2026 00:00 | 11,1 | 90,2 | 0 | 0 | 326 | 0,6 | 985,8 |